Portada
METAR-TAF:

METAR-TAF

Aeroports :

Kerteh, Malàisia

latitud: 04-32-15N, longitud: 103-25-36E, altitud: 5 m

Observació

L'informe es va fer fa 36 minuts, a les 22:00 UTC
Vent 2 kt amb direcció variable
Temperatura 25°C
Humitat 89%
Pressió 1010 hPa

METAR: WMKE 112200Z AUTO VRB02KT //// // ////// 25/23 Q1010

Hora: 06:36 (22:36 UTC)

Pronòstic

L'informe es va fer fa 5 hores i 36 minuts, a les 17:00 UTC
Pronòstic vàlid del 11 a les 18 UTC al 12 a les 18 UTC
Vent 10 kt del Nord/Nord-Est
Visibilitat 10 km o més
Escasses núvols a una alçada de 1500 ft
Temporalment
l' 11 a les 18 UTC al 11 a les 20 UTC
Visibilitat: 7000 m
Escasses núvols a una alçada de 1000 ft
Núvols disperses a una alçada de 1500 ft
pluja

TAF: WMKE 111700Z 1118/1218 02010KT 9999 FEW015 TEMPO 1118/1120 7000 -RA FEW010 SCT015

Observacions i pronòstics meteorològics de més de 4000 aeroports (METAR i TAF).

Les estacions disponibles són els punts grocs i vermells al mapa.

Posi el ratolí al punt desitjat per veure el nom de l'estació.

Feu clic per veure les observacions i els pronòstics meteorològics.

Per canviar el mapa: feu clic els botons verds amb una creu de color negre per apropar; al botó verd amb un guió per allunyar la imatge; o en les fletxes verdes per a mapes adjacents.


METAR-TAF: